sensor_id;sensor_type;location;lat;lon;timestamp;P1;durP1;ratioP1;P2;durP2;ratioP2
74892;SDS011;63446;56.272;43.922;2023-05-19T00:00:26;35.03;;;11.32;;
74892;SDS011;63446;56.272;43.922;2023-05-19T00:02:53;37.40;;;11.50;;
74892;SDS011;63446;56.272;43.922;2023-05-19T00:05:20;29.83;;;11.67;;
74892;SDS011;63446;56.272;43.922;2023-05-19T00:07:47;30.15;;;11.50;;
74892;SDS011;63446;56.272;43.922;2023-05-19T00:10:16;35.53;;;11.63;;
74892;SDS011;63446;56.272;43.922;2023-05-19T00:12:42;29.27;;;11.30;;
74892;SDS011;63446;56.272;43.922;2023-05-19T00:15:09;39.28;;;12.00;;
74892;SDS011;63446;56.272;43.922;2023-05-19T00:17:35;43.07;;;16.33;;
74892;SDS011;63446;56.272;43.922;2023-05-19T00:20:02;33.63;;;11.95;;
74892;SDS011;63446;56.272;43.922;2023-05-19T00:22:32;34.88;;;12.40;;
74892;SDS011;63446;56.272;43.922;2023-05-19T00:24:58;35.30;;;11.65;;
74892;SDS011;63446;56.272;43.922;2023-05-19T00:27:24;39.00;;;12.27;;
74892;SDS011;63446;56.272;43.922;2023-05-19T00:29:50;30.58;;;11.90;;
74892;SDS011;63446;56.272;43.922;2023-05-19T00:32:16;31.00;;;11.85;;
74892;SDS011;63446;56.272;43.922;2023-05-19T00:34:42;32.83;;;12.63;;
74892;SDS011;63446;56.272;43.922;2023-05-19T00:37:07;40.95;;;12.93;;
74892;SDS011;63446;56.272;43.922;2023-05-19T00:39:33;35.03;;;13.03;;
74892;SDS011;63446;56.272;43.922;2023-05-19T00:41:59;36.60;;;14.15;;
74892;SDS011;63446;56.272;43.922;2023-05-19T00:44:25;42.73;;;16.07;;
74892;SDS011;63446;56.272;43.922;2023-05-19T00:46:50;41.63;;;15.00;;
74892;SDS011;63446;56.272;43.922;2023-05-19T00:49:16;43.05;;;14.68;;
74892;SDS011;63446;56.272;43.922;2023-05-19T00:51:42;46.73;;;14.97;;
74892;SDS011;63446;56.272;43.922;2023-05-19T00:54:08;40.25;;;16.17;;
74892;SDS011;63446;56.272;43.922;2023-05-19T00:56:34;44.93;;;16.17;;
74892;SDS011;63446;56.272;43.922;2023-05-19T00:59:00;44.00;;;16.77;;
74892;SDS011;63446;56.272;43.922;2023-05-19T01:01:26;48.33;;;18.55;;
74892;SDS011;63446;56.272;43.922;2023-05-19T01:03:52;44.72;;;18.30;;
74892;SDS011;63446;56.272;43.922;2023-05-19T01:06:21;41.90;;;17.77;;
74892;SDS011;63446;56.272;43.922;2023-05-19T01:08:48;43.40;;;18.65;;
74892;SDS011;63446;56.272;43.922;2023-05-19T01:11:16;50.70;;;17.20;;
74892;SDS011;63446;56.272;43.922;2023-05-19T01:13:42;44.80;;;17.27;;
74892;SDS011;63446;56.272;43.922;2023-05-19T01:18:59;46.85;;;18.77;;
74892;SDS011;63446;56.272;43.922;2023-05-19T01:24:58;43.50;;;17.88;;
74892;SDS011;63446;56.272;43.922;2023-05-19T01:30:40;47.47;;;17.73;;
74892;SDS011;63446;56.272;43.922;2023-05-19T01:33:10;42.70;;;18.50;;
74892;SDS011;63446;56.272;43.922;2023-05-19T01:35:41;54.03;;;19.87;;
74892;SDS011;63446;56.272;43.922;2023-05-19T01:38:08;39.95;;;17.85;;
74892;SDS011;63446;56.272;43.922;2023-05-19T01:40:36;35.70;;;16.33;;
74892;SDS011;63446;56.272;43.922;2023-05-19T01:43:04;34.58;;;14.63;;
74892;SDS011;63446;56.272;43.922;2023-05-19T01:45:32;36.58;;;13.77;;
74892;SDS011;63446;56.272;43.922;2023-05-19T01:47:59;43.73;;;17.67;;
74892;SDS011;63446;56.272;43.922;2023-05-19T01:50:28;35.53;;;17.35;;
74892;SDS011;63446;56.272;43.922;2023-05-19T01:52:54;44.35;;;17.00;;
74892;SDS011;63446;56.272;43.922;2023-05-19T01:55:21;35.03;;;16.27;;
74892;SDS011;63446;56.272;43.922;2023-05-19T02:04:18;36.97;;;16.38;;
74892;SDS011;63446;56.272;43.922;2023-05-19T02:09:52;45.50;;;17.52;;
74892;SDS011;63446;56.272;43.922;2023-05-19T02:17:35;30.38;;;15.25;;
74892;SDS011;63446;56.272;43.922;2023-05-19T02:20:03;36.67;;;15.73;;
74892;SDS011;63446;56.272;43.922;2023-05-19T02:22:30;31.13;;;15.82;;
74892;SDS011;63446;56.272;43.922;2023-05-19T02:24:57;35.75;;;15.80;;
74892;SDS011;63446;56.272;43.922;2023-05-19T02:27:23;33.10;;;14.80;;
74892;SDS011;63446;56.272;43.922;2023-05-19T02:29:49;33.85;;;15.43;;
74892;SDS011;63446;56.272;43.922;2023-05-19T02:32:15;37.13;;;15.98;;
74892;SDS011;63446;56.272;43.922;2023-05-19T02:34:40;28.60;;;15.80;;
74892;SDS011;63446;56.272;43.922;2023-05-19T02:37:13;36.50;;;15.00;;
74892;SDS011;63446;56.272;43.922;2023-05-19T02:39:40;28.10;;;14.80;;
74892;SDS011;63446;56.272;43.922;2023-05-19T02:42:06;26.15;;;13.57;;
74892;SDS011;63446;56.272;43.922;2023-05-19T02:44:33;27.85;;;14.48;;
74892;SDS011;63446;56.272;43.922;2023-05-19T02:46:58;30.20;;;14.30;;
74892;SDS011;63446;56.272;43.922;2023-05-19T02:49:24;30.20;;;15.20;;
74892;SDS011;63446;56.272;43.922;2023-05-19T02:51:50;31.65;;;14.95;;
74892;SDS011;63446;56.272;43.922;2023-05-19T02:54:17;28.15;;;15.13;;
74892;SDS011;63446;56.272;43.922;2023-05-19T02:56:42;33.37;;;16.27;;
74892;SDS011;63446;56.272;43.922;2023-05-19T02:59:09;33.42;;;16.05;;
74892;SDS011;63446;56.272;43.922;2023-05-19T03:01:35;30.17;;;15.60;;
74892;SDS011;63446;56.272;43.922;2023-05-19T03:04:02;31.42;;;17.02;;
74892;SDS011;63446;56.272;43.922;2023-05-19T03:06:28;27.88;;;17.05;;
74892;SDS011;63446;56.272;43.922;2023-05-19T03:08:54;35.33;;;19.67;;
74892;SDS011;63446;56.272;43.922;2023-05-19T03:11:19;32.97;;;19.63;;
74892;SDS011;63446;56.272;43.922;2023-05-19T03:13:47;35.88;;;19.98;;
74892;SDS011;63446;56.272;43.922;2023-05-19T03:16:13;31.37;;;19.30;;
74892;SDS011;63446;56.272;43.922;2023-05-19T03:18:39;38.40;;;22.13;;
74892;SDS011;63446;56.272;43.922;2023-05-19T03:21:06;40.00;;;22.05;;
74892;SDS011;63446;56.272;43.922;2023-05-19T03:23:32;32.77;;;20.93;;
74892;SDS011;63446;56.272;43.922;2023-05-19T03:25:57;37.40;;;21.67;;
74892;SDS011;63446;56.272;43.922;2023-05-19T03:28:24;31.73;;;20.77;;
74892;SDS011;63446;56.272;43.922;2023-05-19T03:30:52;31.40;;;20.90;;
74892;SDS011;63446;56.272;43.922;2023-05-19T03:33:21;31.83;;;21.33;;
74892;SDS011;63446;56.272;43.922;2023-05-19T03:35:48;27.55;;;20.35;;
74892;SDS011;63446;56.272;43.922;2023-05-19T03:38:15;24.42;;;19.73;;
74892;SDS011;63446;56.272;43.922;2023-05-19T03:40:48;22.35;;;18.35;;
74892;SDS011;63446;56.272;43.922;2023-05-19T03:43:14;26.13;;;19.40;;
74892;SDS011;63446;56.272;43.922;2023-05-19T03:45:45;22.40;;;18.40;;
74892;SDS011;63446;56.272;43.922;2023-05-19T03:48:30;23.80;;;18.48;;
74892;SDS011;63446;56.272;43.922;2023-05-19T03:51:31;22.92;;;18.77;;
74892;SDS011;63446;56.272;43.922;2023-05-19T03:54:06;24.20;;;19.77;;
74892;SDS011;63446;56.272;43.922;2023-05-19T03:56:31;28.00;;;21.20;;
74892;SDS011;63446;56.272;43.922;2023-05-19T03:58:58;29.13;;;20.58;;
74892;SDS011;63446;56.272;43.922;2023-05-19T04:01:24;32.92;;;20.65;;
74892;SDS011;63446;56.272;43.922;2023-05-19T04:03:50;29.20;;;21.40;;
74892;SDS011;63446;56.272;43.922;2023-05-19T04:06:15;34.67;;;22.80;;
74892;SDS011;63446;56.272;43.922;2023-05-19T04:08:43;35.47;;;22.50;;
74892;SDS011;63446;56.272;43.922;2023-05-19T04:11:09;28.15;;;24.48;;
74892;SDS011;63446;56.272;43.922;2023-05-19T04:13:35;29.60;;;22.47;;
74892;SDS011;63446;56.272;43.922;2023-05-19T04:16:00;28.00;;;23.33;;
74892;SDS011;63446;56.272;43.922;2023-05-19T04:18:26;35.33;;;25.40;;
74892;SDS011;63446;56.272;43.922;2023-05-19T04:20:52;28.50;;;25.50;;
74892;SDS011;63446;56.272;43.922;2023-05-19T04:23:18;27.58;;;24.65;;
74892;SDS011;63446;56.272;43.922;2023-05-19T04:25:45;27.52;;;24.83;;
74892;SDS011;63446;56.272;43.922;2023-05-19T04:28:13;26.00;;;23.37;;
74892;SDS011;63446;56.272;43.922;2023-05-19T04:30:39;28.63;;;25.67;;
74892;SDS011;63446;56.272;43.922;2023-05-19T04:33:06;28.38;;;25.80;;
74892;SDS011;63446;56.272;43.922;2023-05-19T04:35:36;26.83;;;24.05;;
74892;SDS011;63446;56.272;43.922;2023-05-19T04:38:03;26.60;;;23.98;;
74892;SDS011;63446;56.272;43.922;2023-05-19T04:40:31;27.60;;;25.00;;
74892;SDS011;63446;56.272;43.922;2023-05-19T04:42:56;27.52;;;24.73;;
74892;SDS011;63446;56.272;43.922;2023-05-19T04:45:24;29.35;;;24.13;;
74892;SDS011;63446;56.272;43.922;2023-05-19T04:47:55;27.00;;;24.60;;
74892;SDS011;63446;56.272;43.922;2023-05-19T04:50:22;27.50;;;25.00;;
74892;SDS011;63446;56.272;43.922;2023-05-19T04:52:49;32.85;;;27.83;;
74892;SDS011;63446;56.272;43.922;2023-05-19T04:55:15;36.53;;;25.20;;
74892;SDS011;63446;56.272;43.922;2023-05-19T04:57:42;27.63;;;25.23;;
74892;SDS011;63446;56.272;43.922;2023-05-19T05:00:08;29.90;;;27.33;;
74892;SDS011;63446;56.272;43.922;2023-05-19T05:02:47;28.33;;;25.98;;
74892;SDS011;63446;56.272;43.922;2023-05-19T05:05:16;32.72;;;29.73;;
74892;SDS011;63446;56.272;43.922;2023-05-19T05:07:43;31.03;;;28.17;;
74892;SDS011;63446;56.272;43.922;2023-05-19T05:10:10;34.47;;;29.60;;
74892;SDS011;63446;56.272;43.922;2023-05-19T05:12:36;31.02;;;27.75;;
74892;SDS011;63446;56.272;43.922;2023-05-19T05:15:02;32.80;;;29.95;;
74892;SDS011;63446;56.272;43.922;2023-05-19T05:17:31;35.85;;;33.05;;
74892;SDS011;63446;56.272;43.922;2023-05-19T05:20:01;33.28;;;30.42;;
74892;SDS011;63446;56.272;43.922;2023-05-19T05:22:29;32.40;;;29.95;;
74892;SDS011;63446;56.272;43.922;2023-05-19T05:24:56;33.60;;;31.00;;
74892;SDS011;63446;56.272;43.922;2023-05-19T05:27:23;34.05;;;31.65;;
74892;SDS011;63446;56.272;43.922;2023-05-19T05:29:49;34.90;;;31.85;;
74892;SDS011;63446;56.272;43.922;2023-05-19T05:32:15;32.83;;;30.53;;
74892;SDS011;63446;56.272;43.922;2023-05-19T05:34:42;32.70;;;30.17;;
74892;SDS011;63446;56.272;43.922;2023-05-19T05:37:10;31.83;;;29.25;;
74892;SDS011;63446;56.272;43.922;2023-05-19T05:39:36;32.93;;;30.13;;
74892;SDS011;63446;56.272;43.922;2023-05-19T05:42:02;32.55;;;29.85;;
74892;SDS011;63446;56.272;43.922;2023-05-19T05:44:28;34.45;;;31.35;;
74892;SDS011;63446;56.272;43.922;2023-05-19T05:46:55;34.30;;;31.35;;
74892;SDS011;63446;56.272;43.922;2023-05-19T05:49:21;32.87;;;30.00;;
74892;SDS011;63446;56.272;43.922;2023-05-19T05:51:48;33.85;;;30.95;;
74892;SDS011;63446;56.272;43.922;2023-05-19T05:54:16;31.83;;;29.35;;
74892;SDS011;63446;56.272;43.922;2023-05-19T05:56:46;30.88;;;27.70;;
74892;SDS011;63446;56.272;43.922;2023-05-19T05:59:12;33.35;;;30.48;;
74892;SDS011;63446;56.272;43.922;2023-05-19T06:01:38;24.93;;;22.47;;
74892;SDS011;63446;56.272;43.922;2023-05-19T06:04:08;23.10;;;20.90;;
74892;SDS011;63446;56.272;43.922;2023-05-19T06:06:35;22.20;;;18.83;;
74892;SDS011;63446;56.272;43.922;2023-05-19T06:09:03;17.30;;;15.27;;
74892;SDS011;63446;56.272;43.922;2023-05-19T06:11:29;17.02;;;13.23;;
74892;SDS011;63446;56.272;43.922;2023-05-19T06:13:57;17.70;;;12.18;;
74892;SDS011;63446;56.272;43.922;2023-05-19T06:16:41;13.95;;;11.80;;
74892;SDS011;63446;56.272;43.922;2023-05-19T06:19:07;14.52;;;10.70;;
74892;SDS011;63446;56.272;43.922;2023-05-19T06:21:35;15.27;;;10.27;;
74892;SDS011;63446;56.272;43.922;2023-05-19T06:24:01;15.98;;;9.52;;
74892;SDS011;63446;56.272;43.922;2023-05-19T06:26:27;14.48;;;10.30;;
74892;SDS011;63446;56.272;43.922;2023-05-19T06:28:53;19.97;;;10.83;;
74892;SDS011;63446;56.272;43.922;2023-05-19T06:31:19;16.65;;;10.43;;
74892;SDS011;63446;56.272;43.922;2023-05-19T06:33:50;20.67;;;10.52;;
74892;SDS011;63446;56.272;43.922;2023-05-19T06:36:19;18.63;;;10.02;;
74892;SDS011;63446;56.272;43.922;2023-05-19T06:38:46;20.50;;;10.80;;
74892;SDS011;63446;56.272;43.922;2023-05-19T06:41:12;16.90;;;9.07;;
74892;SDS011;63446;56.272;43.922;2023-05-19T06:43:39;16.73;;;9.98;;
74892;SDS011;63446;56.272;43.922;2023-05-19T06:46:11;14.68;;;9.18;;
74892;SDS011;63446;56.272;43.922;2023-05-19T06:48:39;15.15;;;9.38;;
74892;SDS011;63446;56.272;43.922;2023-05-19T06:51:06;18.02;;;9.75;;
74892;SDS011;63446;56.272;43.922;2023-05-19T06:53:32;17.73;;;9.40;;
74892;SDS011;63446;56.272;43.922;2023-05-19T06:56:01;12.80;;;9.10;;
74892;SDS011;63446;56.272;43.922;2023-05-19T06:58:31;10.45;;;9.07;;
74892;SDS011;63446;56.272;43.922;2023-05-19T07:00:59;15.27;;;8.52;;
74892;SDS011;63446;56.272;43.922;2023-05-19T07:03:29;12.75;;;8.57;;
74892;SDS011;63446;56.272;43.922;2023-05-19T07:05:55;17.90;;;9.67;;
74892;SDS011;63446;56.272;43.922;2023-05-19T07:08:21;14.98;;;10.57;;
74892;SDS011;63446;56.272;43.922;2023-05-19T07:10:48;17.75;;;10.13;;
74892;SDS011;63446;56.272;43.922;2023-05-19T07:13:15;15.68;;;9.90;;
74892;SDS011;63446;56.272;43.922;2023-05-19T07:15:41;14.00;;;10.43;;
74892;SDS011;63446;56.272;43.922;2023-05-19T07:18:06;18.20;;;10.68;;
74892;SDS011;63446;56.272;43.922;2023-05-19T07:20:34;17.43;;;10.97;;
74892;SDS011;63446;56.272;43.922;2023-05-19T07:23:00;19.30;;;11.60;;
74892;SDS011;63446;56.272;43.922;2023-05-19T07:25:27;22.25;;;11.18;;
74892;SDS011;63446;56.272;43.922;2023-05-19T07:27:55;26.63;;;10.80;;
74892;SDS011;63446;56.272;43.922;2023-05-19T07:30:21;19.13;;;10.63;;
74892;SDS011;63446;56.272;43.922;2023-05-19T07:32:47;18.83;;;9.90;;
74892;SDS011;63446;56.272;43.922;2023-05-19T07:35:13;20.88;;;9.80;;
74892;SDS011;63446;56.272;43.922;2023-05-19T07:37:39;21.02;;;9.52;;
74892;SDS011;63446;56.272;43.922;2023-05-19T07:40:07;16.73;;;9.90;;
74892;SDS011;63446;56.272;43.922;2023-05-19T07:42:33;16.35;;;9.80;;
74892;SDS011;63446;56.272;43.922;2023-05-19T07:44:59;16.27;;;9.50;;
74892;SDS011;63446;56.272;43.922;2023-05-19T07:47:25;18.42;;;9.20;;
74892;SDS011;63446;56.272;43.922;2023-05-19T07:49:51;15.73;;;9.90;;
74892;SDS011;63446;56.272;43.922;2023-05-19T07:52:17;18.52;;;9.48;;
74892;SDS011;63446;56.272;43.922;2023-05-19T07:54:45;17.80;;;9.57;;
74892;SDS011;63446;56.272;43.922;2023-05-19T07:57:11;17.75;;;9.88;;
74892;SDS011;63446;56.272;43.922;2023-05-19T07:59:36;19.47;;;9.43;;
74892;SDS011;63446;56.272;43.922;2023-05-19T08:02:02;19.02;;;9.55;;
74892;SDS011;63446;56.272;43.922;2023-05-19T08:04:28;23.70;;;9.13;;
74892;SDS011;63446;56.272;43.922;2023-05-19T08:06:54;21.58;;;8.88;;
74892;SDS011;63446;56.272;43.922;2023-05-19T08:09:21;15.93;;;8.37;;
74892;SDS011;63446;56.272;43.922;2023-05-19T08:11:46;13.68;;;7.88;;
74892;SDS011;63446;56.272;43.922;2023-05-19T08:14:12;16.48;;;8.77;;
74892;SDS011;63446;56.272;43.922;2023-05-19T08:16:38;20.35;;;8.57;;
74892;SDS011;63446;56.272;43.922;2023-05-19T08:19:06;19.90;;;8.23;;
74892;SDS011;63446;56.272;43.922;2023-05-19T08:21:32;19.45;;;8.55;;
74892;SDS011;63446;56.272;43.922;2023-05-19T08:24:00;24.05;;;8.35;;
74892;SDS011;63446;56.272;43.922;2023-05-19T08:26:26;24.83;;;9.07;;
74892;SDS011;63446;56.272;43.922;2023-05-19T08:28:52;18.35;;;9.38;;
74892;SDS011;63446;56.272;43.922;2023-05-19T08:31:18;26.70;;;9.13;;
74892;SDS011;63446;56.272;43.922;2023-05-19T08:33:44;18.13;;;8.48;;
74892;SDS011;63446;56.272;43.922;2023-05-19T08:36:10;20.00;;;8.27;;
74892;SDS011;63446;56.272;43.922;2023-05-19T08:38:38;15.43;;;7.35;;
74892;SDS011;63446;56.272;43.922;2023-05-19T08:41:03;15.95;;;8.13;;
74892;SDS011;63446;56.272;43.922;2023-05-19T08:43:30;16.38;;;8.82;;
74892;SDS011;63446;56.272;43.922;2023-05-19T08:45:56;16.23;;;8.75;;
74892;SDS011;63446;56.272;43.922;2023-05-19T08:48:27;18.53;;;8.70;;
74892;SDS011;63446;56.272;43.922;2023-05-19T08:53:47;20.65;;;8.85;;
74892;SDS011;63446;56.272;43.922;2023-05-19T08:56:24;17.55;;;7.88;;
74892;SDS011;63446;56.272;43.922;2023-05-19T08:58:52;19.67;;;8.48;;
74892;SDS011;63446;56.272;43.922;2023-05-19T09:01:24;19.00;;;8.97;;
74892;SDS011;63446;56.272;43.922;2023-05-19T09:03:53;16.40;;;8.10;;
74892;SDS011;63446;56.272;43.922;2023-05-19T09:06:19;24.42;;;8.93;;
74892;SDS011;63446;56.272;43.922;2023-05-19T09:08:46;16.00;;;8.27;;
74892;SDS011;63446;56.272;43.922;2023-05-19T09:11:12;18.30;;;9.45;;
74892;SDS011;63446;56.272;43.922;2023-05-19T09:13:38;16.90;;;9.37;;
74892;SDS011;63446;56.272;43.922;2023-05-19T09:16:04;22.33;;;9.00;;
74892;SDS011;63446;56.272;43.922;2023-05-19T09:18:30;21.45;;;10.18;;
74892;SDS011;63446;56.272;43.922;2023-05-19T09:21:00;18.02;;;8.38;;
74892;SDS011;63446;56.272;43.922;2023-05-19T09:23:28;16.30;;;7.90;;
74892;SDS011;63446;56.272;43.922;2023-05-19T09:25:56;19.15;;;8.50;;
74892;SDS011;63446;56.272;43.922;2023-05-19T09:28:22;18.20;;;8.00;;
74892;SDS011;63446;56.272;43.922;2023-05-19T09:31:03;13.38;;;7.50;;
74892;SDS011;63446;56.272;43.922;2023-05-19T09:33:34;22.08;;;8.10;;
74892;SDS011;63446;56.272;43.922;2023-05-19T09:36:01;24.93;;;8.40;;
74892;SDS011;63446;56.272;43.922;2023-05-19T09:38:30;45.03;;;9.20;;
74892;SDS011;63446;56.272;43.922;2023-05-19T09:40:57;15.50;;;7.38;;
74892;SDS011;63446;56.272;43.922;2023-05-19T09:43:28;16.73;;;7.60;;
74892;SDS011;63446;56.272;43.922;2023-05-19T09:46:05;21.42;;;7.82;;
74892;SDS011;63446;56.272;43.922;2023-05-19T09:48:32;15.00;;;7.53;;
74892;SDS011;63446;56.272;43.922;2023-05-19T09:50:59;24.63;;;7.32;;
74892;SDS011;63446;56.272;43.922;2023-05-19T09:53:27;30.73;;;7.80;;
74892;SDS011;63446;56.272;43.922;2023-05-19T09:55:55;44.25;;;8.88;;
74892;SDS011;63446;56.272;43.922;2023-05-19T09:58:24;16.35;;;6.68;;
74892;SDS011;63446;56.272;43.922;2023-05-19T10:00:51;15.37;;;6.97;;
74892;SDS011;63446;56.272;43.922;2023-05-19T10:03:19;32.28;;;7.00;;
74892;SDS011;63446;56.272;43.922;2023-05-19T10:05:47;51.03;;;7.97;;
74892;SDS011;63446;56.272;43.922;2023-05-19T10:08:13;23.33;;;6.55;;
74892;SDS011;63446;56.272;43.922;2023-05-19T10:10:43;17.52;;;6.50;;
74892;SDS011;63446;56.272;43.922;2023-05-19T10:13:10;15.50;;;6.10;;
74892;SDS011;63446;56.272;43.922;2023-05-19T10:15:37;18.70;;;6.18;;
74892;SDS011;63446;56.272;43.922;2023-05-19T10:18:05;13.38;;;5.60;;
74892;SDS011;63446;56.272;43.922;2023-05-19T10:20:33;13.63;;;5.68;;
74892;SDS011;63446;56.272;43.922;2023-05-19T10:23:01;13.50;;;5.75;;
74892;SDS011;63446;56.272;43.922;2023-05-19T10:25:29;19.23;;;5.90;;
74892;SDS011;63446;56.272;43.922;2023-05-19T10:28:02;20.33;;;5.85;;
74892;SDS011;63446;56.272;43.922;2023-05-19T10:30:33;13.73;;;5.32;;
74892;SDS011;63446;56.272;43.922;2023-05-19T10:33:03;20.05;;;6.68;;
74892;SDS011;63446;56.272;43.922;2023-05-19T10:35:46;15.32;;;5.93;;
74892;SDS011;63446;56.272;43.922;2023-05-19T10:44:04;14.02;;;5.40;;
74892;SDS011;63446;56.272;43.922;2023-05-19T10:46:44;11.43;;;5.13;;
74892;SDS011;63446;56.272;43.922;2023-05-19T10:49:10;12.68;;;5.57;;
74892;SDS011;63446;56.272;43.922;2023-05-19T10:51:44;13.07;;;5.10;;
74892;SDS011;63446;56.272;43.922;2023-05-19T10:54:10;22.73;;;4.90;;
74892;SDS011;63446;56.272;43.922;2023-05-19T10:56:41;12.63;;;4.97;;
74892;SDS011;63446;56.272;43.922;2023-05-19T10:59:30;12.52;;;5.00;;
74892;SDS011;63446;56.272;43.922;2023-05-19T11:02:05;17.55;;;5.10;;
74892;SDS011;63446;56.272;43.922;2023-05-19T11:04:38;9.63;;;4.33;;
74892;SDS011;63446;56.272;43.922;2023-05-19T11:07:04;10.52;;;5.20;;
74892;SDS011;63446;56.272;43.922;2023-05-19T11:09:36;13.02;;;4.70;;
74892;SDS011;63446;56.272;43.922;2023-05-19T11:12:07;9.77;;;4.38;;
74892;SDS011;63446;56.272;43.922;2023-05-19T11:14:35;68.00;;;6.55;;
74892;SDS011;63446;56.272;43.922;2023-05-19T11:17:00;23.63;;;5.07;;
74892;SDS011;63446;56.272;43.922;2023-05-19T11:20:11;11.82;;;5.05;;
74892;SDS011;63446;56.272;43.922;2023-05-19T11:22:17;19.10;;;5.25;;
74892;SDS011;63446;56.272;43.922;2023-05-19T11:24:44;36.77;;;6.33;;
74892;SDS011;63446;56.272;43.922;2023-05-19T11:27:16;18.55;;;4.95;;
74892;SDS011;63446;56.272;43.922;2023-05-19T11:29:42;9.43;;;4.75;;
74892;SDS011;63446;56.272;43.922;2023-05-19T11:32:08;12.00;;;4.70;;
74892;SDS011;63446;56.272;43.922;2023-05-19T11:34:36;10.52;;;5.13;;
74892;SDS011;63446;56.272;43.922;2023-05-19T11:37:03;24.77;;;6.55;;
74892;SDS011;63446;56.272;43.922;2023-05-19T11:39:29;18.10;;;5.88;;
74892;SDS011;63446;56.272;43.922;2023-05-19T11:41:56;16.48;;;5.45;;
74892;SDS011;63446;56.272;43.922;2023-05-19T11:44:22;15.67;;;5.70;;
74892;SDS011;63446;56.272;43.922;2023-05-19T11:46:48;16.75;;;7.10;;
74892;SDS011;63446;56.272;43.922;2023-05-19T11:49:14;18.48;;;6.00;;
74892;SDS011;63446;56.272;43.922;2023-05-19T11:51:46;19.97;;;5.80;;
74892;SDS011;63446;56.272;43.922;2023-05-19T11:54:12;16.17;;;6.45;;
74892;SDS011;63446;56.272;43.922;2023-05-19T11:56:38;16.67;;;6.38;;
74892;SDS011;63446;56.272;43.922;2023-05-19T11:59:05;17.37;;;6.40;;
74892;SDS011;63446;56.272;43.922;2023-05-19T12:01:32;14.90;;;6.28;;
74892;SDS011;63446;56.272;43.922;2023-05-19T12:03:58;13.85;;;6.45;;
74892;SDS011;63446;56.272;43.922;2023-05-19T12:06:25;14.68;;;6.65;;
74892;SDS011;63446;56.272;43.922;2023-05-19T12:08:51;17.40;;;6.50;;
74892;SDS011;63446;56.272;43.922;2023-05-19T12:11:18;17.92;;;6.50;;
74892;SDS011;63446;56.272;43.922;2023-05-19T12:13:44;32.90;;;7.13;;
74892;SDS011;63446;56.272;43.922;2023-05-19T12:16:11;25.05;;;7.28;;
74892;SDS011;63446;56.272;43.922;2023-05-19T12:18:38;54.37;;;8.27;;
74892;SDS011;63446;56.272;43.922;2023-05-19T12:21:07;17.40;;;6.18;;
74892;SDS011;63446;56.272;43.922;2023-05-19T12:23:32;26.42;;;5.90;;
74892;SDS011;63446;56.272;43.922;2023-05-19T12:25:59;28.33;;;6.40;;
74892;SDS011;63446;56.272;43.922;2023-05-19T12:28:28;17.67;;;6.00;;
74892;SDS011;63446;56.272;43.922;2023-05-19T12:30:54;19.67;;;6.07;;
74892;SDS011;63446;56.272;43.922;2023-05-19T12:33:23;19.52;;;6.25;;
74892;SDS011;63446;56.272;43.922;2023-05-19T12:35:49;21.40;;;5.38;;
74892;SDS011;63446;56.272;43.922;2023-05-19T12:38:17;15.35;;;5.10;;
74892;SDS011;63446;56.272;43.922;2023-05-19T12:40:44;14.80;;;4.70;;
74892;SDS011;63446;56.272;43.922;2023-05-19T12:43:20;21.63;;;5.28;;
74892;SDS011;63446;56.272;43.922;2023-05-19T12:45:47;32.58;;;6.32;;
74892;SDS011;63446;56.272;43.922;2023-05-19T12:48:13;19.02;;;5.03;;
74892;SDS011;63446;56.272;43.922;2023-05-19T12:50:40;34.10;;;5.53;;
74892;SDS011;63446;56.272;43.922;2023-05-19T12:53:12;30.50;;;4.27;;
74892;SDS011;63446;56.272;43.922;2023-05-19T12:55:42;41.00;;;5.63;;
74892;SDS011;63446;56.272;43.922;2023-05-19T12:58:10;33.40;;;5.53;;
74892;SDS011;63446;56.272;43.922;2023-05-19T13:00:43;14.18;;;4.10;;
74892;SDS011;63446;56.272;43.922;2023-05-19T13:03:15;13.03;;;3.57;;
74892;SDS011;63446;56.272;43.922;2023-05-19T13:05:45;16.52;;;3.33;;
74892;SDS011;63446;56.272;43.922;2023-05-19T13:08:13;11.85;;;3.10;;
74892;SDS011;63446;56.272;43.922;2023-05-19T13:10:41;14.20;;;2.90;;
74892;SDS011;63446;56.272;43.922;2023-05-19T13:13:09;13.55;;;3.10;;
74892;SDS011;63446;56.272;43.922;2023-05-19T13:15:39;14.57;;;3.47;;
74892;SDS011;63446;56.272;43.922;2023-05-19T13:18:09;12.25;;;3.28;;
74892;SDS011;63446;56.272;43.922;2023-05-19T13:20:46;7.25;;;3.03;;
74892;SDS011;63446;56.272;43.922;2023-05-19T13:23:16;22.60;;;4.00;;
74892;SDS011;63446;56.272;43.922;2023-05-19T13:25:44;9.40;;;3.55;;
74892;SDS011;63446;56.272;43.922;2023-05-19T13:28:10;8.55;;;3.08;;
74892;SDS011;63446;56.272;43.922;2023-05-19T13:30:37;27.15;;;3.60;;
74892;SDS011;63446;56.272;43.922;2023-05-19T13:33:04;17.67;;;3.30;;
74892;SDS011;63446;56.272;43.922;2023-05-19T13:35:31;16.73;;;3.42;;
74892;SDS011;63446;56.272;43.922;2023-05-19T13:38:04;21.85;;;3.03;;
74892;SDS011;63446;56.272;43.922;2023-05-19T13:40:37;21.55;;;3.50;;
74892;SDS011;63446;56.272;43.922;2023-05-19T13:43:04;13.63;;;2.50;;
74892;SDS011;63446;56.272;43.922;2023-05-19T13:45:30;19.40;;;3.00;;
74892;SDS011;63446;56.272;43.922;2023-05-19T13:47:56;51.33;;;4.35;;
74892;SDS011;63446;56.272;43.922;2023-05-19T13:50:22;15.77;;;2.15;;
74892;SDS011;63446;56.272;43.922;2023-05-19T13:52:48;13.30;;;1.98;;
74892;SDS011;63446;56.272;43.922;2023-05-19T13:55:14;16.37;;;2.30;;
74892;SDS011;63446;56.272;43.922;2023-05-19T13:57:40;16.10;;;1.92;;
74892;SDS011;63446;56.272;43.922;2023-05-19T14:00:06;17.20;;;2.00;;
74892;SDS011;63446;56.272;43.922;2023-05-19T14:02:40;8.40;;;1.65;;
74892;SDS011;63446;56.272;43.922;2023-05-19T14:05:07;12.75;;;1.73;;
74892;SDS011;63446;56.272;43.922;2023-05-19T14:07:33;13.60;;;1.87;;
74892;SDS011;63446;56.272;43.922;2023-05-19T14:10:00;11.90;;;1.60;;
74892;SDS011;63446;56.272;43.922;2023-05-19T14:12:30;13.60;;;1.85;;
74892;SDS011;63446;56.272;43.922;2023-05-19T14:14:56;16.25;;;2.17;;
74892;SDS011;63446;56.272;43.922;2023-05-19T14:17:22;12.15;;;2.30;;
74892;SDS011;63446;56.272;43.922;2023-05-19T14:19:48;13.20;;;2.40;;
74892;SDS011;63446;56.272;43.922;2023-05-19T14:22:14;10.07;;;1.73;;
74892;SDS011;63446;56.272;43.922;2023-05-19T14:24:40;15.13;;;1.70;;
74892;SDS011;63446;56.272;43.922;2023-05-19T14:27:06;25.05;;;3.03;;
74892;SDS011;63446;56.272;43.922;2023-05-19T14:29:32;18.10;;;2.33;;
74892;SDS011;63446;56.272;43.922;2023-05-19T14:31:58;11.23;;;2.08;;
74892;SDS011;63446;56.272;43.922;2023-05-19T14:34:24;10.35;;;2.20;;
74892;SDS011;63446;56.272;43.922;2023-05-19T14:36:50;10.02;;;1.80;;
74892;SDS011;63446;56.272;43.922;2023-05-19T14:39:16;17.20;;;2.30;;
74892;SDS011;63446;56.272;43.922;2023-05-19T14:41:42;15.85;;;1.75;;
74892;SDS011;63446;56.272;43.922;2023-05-19T14:44:08;9.80;;;1.77;;
74892;SDS011;63446;56.272;43.922;2023-05-19T14:46:34;7.90;;;1.57;;
74892;SDS011;63446;56.272;43.922;2023-05-19T14:49:00;9.45;;;1.63;;
74892;SDS011;63446;56.272;43.922;2023-05-19T14:51:27;10.05;;;1.60;;